createdAt,value
2019-05-12T00:04:10.512Z,9.10
2019-05-12T00:10:55.368Z,9.00
2019-05-12T00:17:40.422Z,9.10
2019-05-12T00:24:25.263Z,9.00
2019-05-12T00:31:10.263Z,9.00
2019-05-12T00:37:55.292Z,9.00
2019-05-12T00:44:40.139Z,9.00
2019-05-12T00:51:25.070Z,9.00
2019-05-12T00:58:10.063Z,9.00
2019-05-12T01:04:54.920Z,9.00
2019-05-12T01:11:40.280Z,9.00
2019-05-12T01:18:25.212Z,9.00
2019-05-12T01:25:10.740Z,9.10
2019-05-12T01:31:58.546Z,9.00
2019-05-12T01:38:43.583Z,9.00
2019-05-12T01:45:29.028Z,9.00
2019-05-12T01:52:15.092Z,9.00
2019-05-12T01:58:59.966Z,9.00
2019-05-12T02:05:49.152Z,9.00
2019-05-12T02:12:34.155Z,9.00
2019-05-12T02:19:19.039Z,8.90
2019-05-12T02:26:03.901Z,8.80
2019-05-12T02:32:57.294Z,8.60
2019-05-12T02:39:36.431Z,8.30
2019-05-12T02:46:21.427Z,8.20
2019-05-12T02:53:06.620Z,8.20
2019-05-12T02:59:54.059Z,8.30
2019-05-12T03:06:40.834Z,8.30
2019-05-12T03:13:25.771Z,8.10
2019-05-12T03:20:15.041Z,8.00
2019-05-12T03:26:58.208Z,8.00
2019-05-12T03:33:51.999Z,7.90
2019-05-12T03:40:30.360Z,8.10
2019-05-12T03:47:15.233Z,8.10
2019-05-12T03:54:00.554Z,8.20
2019-05-12T04:00:45.496Z,8.30
2019-05-12T04:07:30.424Z,8.20
2019-05-12T04:14:15.292Z,8.20
2019-05-12T04:21:00.221Z,8.30
2019-05-12T04:27:45.269Z,8.30
2019-05-12T04:34:30.259Z,8.30
2019-05-12T04:41:19.594Z,8.30
2019-05-12T04:48:04.826Z,8.50
2019-05-12T04:54:48.411Z,8.50
2019-05-12T05:01:34.607Z,8.50
2019-05-12T05:08:20.193Z,8.50
2019-05-12T05:15:06.816Z,8.40
2019-05-12T05:21:54.053Z,8.40
2019-05-12T05:28:38.663Z,8.30
2019-05-12T05:35:23.940Z,8.40
2019-05-12T05:42:08.963Z,8.40
2019-05-12T05:48:54.282Z,8.30
2019-05-12T05:55:39.835Z,8.30
2019-05-12T06:02:32.003Z,8.30
2019-05-12T06:09:11.256Z,8.50
2019-05-12T06:15:56.922Z,8.50
2019-05-12T06:22:43.807Z,8.60
2019-05-12T06:29:29.193Z,8.80
2019-05-12T06:36:22.344Z,9.20
2019-05-12T06:43:04.129Z,9.30
2019-05-12T06:49:48.770Z,9.60
2019-05-12T06:56:35.053Z,9.40
2019-05-12T07:03:28.426Z,9.50
2019-05-12T07:10:13.212Z,10.30
2019-05-12T07:17:01.481Z,13.00
2019-05-12T07:23:44.472Z,13.10
2019-05-12T07:30:32.635Z,11.70
2019-05-12T07:37:19.491Z,10.90
2019-05-12T07:44:04.488Z,12.00
2019-05-12T07:50:50.364Z,20.50
2019-05-12T07:57:45.139Z,16.50
2019-05-12T08:04:23.919Z,16.50
2019-05-12T08:11:08.939Z,17.50
2019-05-12T08:17:55.364Z,15.30
2019-05-12T08:24:43.278Z,16.50
2019-05-12T08:31:34.777Z,14.60
2019-05-12T08:38:14.642Z,17.20
2019-05-12T08:44:59.832Z,15.30
2019-05-12T08:51:49.502Z,21.90
2019-05-12T08:58:46.717Z,20.70
2019-05-12T09:05:18.949Z,15.60
2019-05-12T09:12:03.947Z,18.20
2019-05-12T09:18:48.812Z,24.00
2019-05-12T09:25:34.270Z,22.80
2019-05-12T09:32:19.376Z,18.80
2019-05-12T09:39:07.744Z,17.20
2019-05-12T09:45:56.284Z,23.10
2019-05-12T09:52:39.154Z,21.20
2019-05-12T09:59:25.880Z,17.30
2019-05-12T10:06:16.143Z,15.10
2019-05-12T10:12:57.683Z,16.60
2019-05-12T10:19:43.378Z,17.70
2019-05-12T10:26:28.391Z,16.20
2019-05-12T10:33:13.888Z,15.90
2019-05-12T10:39:59.184Z,16.20
2019-05-12T10:46:45.738Z,14.50
2019-05-12T10:53:31.000Z,13.70
2019-05-12T11:00:19.898Z,14.20
2019-05-12T11:07:04.704Z,14.40
2019-05-12T11:13:50.562Z,13.60
2019-05-12T11:20:35.503Z,13.30
2019-05-12T11:27:21.000Z,14.40
2019-05-12T11:34:06.151Z,15.10
2019-05-12T11:40:51.192Z,15.40
2019-05-12T11:47:37.342Z,14.60
2019-05-12T11:54:24.262Z,13.70
2019-05-12T12:01:10.710Z,13.50
2019-05-12T12:07:56.142Z,13.90
2019-05-12T12:14:48.493Z,14.80
2019-05-12T12:21:28.317Z,15.80
2019-05-12T12:28:13.709Z,15.50
2019-05-12T12:35:00.845Z,14.40
2019-05-12T12:41:58.343Z,14.10
2019-05-12T12:48:34.491Z,15.40
2019-05-12T12:55:19.415Z,15.80
2019-05-12T13:02:07.957Z,15.90
2019-05-12T13:08:53.954Z,15.10
2019-05-12T13:15:38.283Z,14.40
2019-05-12T13:22:24.551Z,15.10
2019-05-12T13:29:09.754Z,15.50
2019-05-12T13:35:55.644Z,15.40
2019-05-12T13:42:43.628Z,15.40
2019-05-12T13:49:29.909Z,15.50
2019-05-12T13:56:19.248Z,15.40
2019-05-12T14:03:07.137Z,15.70
2019-05-12T14:09:47.648Z,16.10
2019-05-12T14:16:33.913Z,15.50
2019-05-12T14:23:18.812Z,15.60
2019-05-12T14:30:10.023Z,15.40
2019-05-12T14:37:04.801Z,15.50
2019-05-12T14:43:38.923Z,15.70
2019-05-12T14:50:23.909Z,15.50
2019-05-12T14:57:08.765Z,15.70
2019-05-12T15:03:53.650Z,14.70
2019-05-12T15:10:38.569Z,15.00
2019-05-12T15:17:24.507Z,15.70
2019-05-12T15:24:15.433Z,15.70
2019-05-12T15:31:00.360Z,14.60
2019-05-12T15:37:43.886Z,15.10
2019-05-12T15:44:32.327Z,15.70
2019-05-12T15:51:16.104Z,15.20
2019-05-12T15:58:05.275Z,15.10
2019-05-12T16:04:48.514Z,15.30
2019-05-12T16:11:34.900Z,14.90
2019-05-12T16:18:19.768Z,15.20
2019-05-12T16:25:06.365Z,15.10
2019-05-12T16:31:53.354Z,15.20
2019-05-12T16:38:37.943Z,15.00
2019-05-12T16:45:23.506Z,14.40
2019-05-12T16:52:08.953Z,13.90
2019-05-12T16:58:54.253Z,14.00
2019-05-12T17:05:39.173Z,14.20
2019-05-12T17:12:32.063Z,14.40
2019-05-12T17:19:10.872Z,14.50
2019-05-12T17:25:55.913Z,14.50
2019-05-12T17:32:56.534Z,14.40
2019-05-12T17:39:29.490Z,14.20
2019-05-12T17:46:18.080Z,14.30
2019-05-12T17:53:01.247Z,14.40
2019-05-12T17:59:46.184Z,14.20
2019-05-12T18:06:31.140Z,14.10
2019-05-12T18:13:23.017Z,14.00
2019-05-12T18:20:04.110Z,14.00
2019-05-12T18:26:58.672Z,13.50
2019-05-12T18:33:48.914Z,13.20
2019-05-12T18:40:27.782Z,12.90
2019-05-12T18:47:14.371Z,12.70
2019-05-12T18:53:58.049Z,12.50
2019-05-12T19:00:45.090Z,12.30
2019-05-12T19:07:39.594Z,12.00
2019-05-12T19:14:17.830Z,11.70
2019-05-12T19:21:04.726Z,11.50
2019-05-12T19:27:55.465Z,11.40
2019-05-12T19:34:39.308Z,11.40
2019-05-12T19:41:24.625Z,11.40
2019-05-12T19:48:23.123Z,11.30
2019-05-12T19:54:56.761Z,11.20
2019-05-12T20:01:44.354Z,11.10
2019-05-12T20:08:28.464Z,11.00
2019-05-12T20:15:15.054Z,10.90
2019-05-12T20:22:00.468Z,10.70
2019-05-12T20:28:50.601Z,10.40
2019-05-12T20:35:33.786Z,10.20
2019-05-12T20:42:18.901Z,10.00
2019-05-12T20:49:07.562Z,9.90
2019-05-12T20:55:50.724Z,9.70
2019-05-12T21:02:35.725Z,9.80
2019-05-12T21:09:20.575Z,9.60
2019-05-12T21:16:16.358Z,9.60
2019-05-12T21:22:53.836Z,9.40
2019-05-12T21:29:38.659Z,9.20
2019-05-12T21:36:26.584Z,9.10
2019-05-12T21:43:10.333Z,8.90
2019-05-12T21:49:57.876Z,8.70
2019-05-12T21:56:44.845Z,8.50
2019-05-12T22:03:28.468Z,8.30
2019-05-12T22:10:15.590Z,8.10
2019-05-12T22:17:02.306Z,7.90
2019-05-12T22:23:51.139Z,7.70
2019-05-12T22:30:35.024Z,7.50
2019-05-12T22:37:20.023Z,7.40
2019-05-12T22:44:05.071Z,7.30
2019-05-12T22:50:50.078Z,7.10
2019-05-12T22:57:40.149Z,7.00
2019-05-12T23:04:26.026Z,6.80
2019-05-12T23:11:08.351Z,6.70
2019-05-12T23:17:53.403Z,6.60
2019-05-12T23:24:40.741Z,6.40
2019-05-12T23:31:29.849Z,6.30
2019-05-12T23:38:18.893Z,6.20
2019-05-12T23:44:58.659Z,6.10
2019-05-12T23:51:44.072Z,6.20
2019-05-12T23:58:29.427Z,6.30
